Ana Sayfa
METAR-TAF:

METAR-TAF

Havaalanları :

Elâzığ Havalimanı

Elâzığ, Türkiye

Enlem: 38-36N, Boylam: 039-17E, yükseklik: 902 m

Güncel hava durumu gözlemi

Rapor saat 16:50 UTC de 1 saat ve 6 dakika önce yapıldı.
Rüzgar batı/kuzeybatıdan 18 kt
Sıcaklık 32°C
Nem 15%
Basınç 1005 hPa
Görüş mesafesi 10 km veya daha fazla
1500 m altında bulut yok ve kümülonimbus yok

METAR: LTCA 181650Z 29018KT CAVOK 32/02 Q1005 NOSIG

Saat: 20:56 (17:56 UTC)

Tahmin

Rapor saat 16:40 UTC de 1 saat ve 16 dakika önce yapıldı.
Ayın 18'si saat 18 UTC'den ayın 19'si saat 03 UTC'ye kadar geçerli Tahmin
Rüzgar batı/kuzeybatıdan 12 kt
Görüş mesafesi 10 km veya daha fazla
1500 m altında bulut yok ve kümülonimbus yok

TAF: LTCA 181640Z 1818/1903 30012KT CAVOK

4.000'den fazla havaalanı için hava durumu gözlemleri ve tahminleri (METAR ve TAF raporları).

Kullanılabilir istasyonlar harita üzerinde sarı ve kırmızı noktalarla gösterilir.

İstasyonun adını görmek için fareyi noktanın üzerinde gezdirin.

Sonrasında hava gözlem ve tahminlerini görmek için tıklayın.

Haritayı değiştirmek için: yaklaştırmak için siyah artı işaretli yeşil düğmeye ve uzaklaştırmak için de eksi işaretli düğmeye hızla tıklayın; bitişik haritalar için yeşil okları kullanın.


METAR-TAF: